Time;durP1;ratioP1;P1;durP2;ratioP2;P2;SDS_P1;SDS_P2;PMS_P1;PMS_P2;Temp;Humidity;BMP_temperature;BMP_pressure;BME280_temperature;BME280_humidity;BME280_pressure;Samples;Min_cycle;Max_cycle;Signal;HPM_P1;HPM_P2
2021/07/02 00:02:06;;;;;;;4.05;2.80;;;;;;;14.63;87.81;101070.88;4844801;29;20027;-84
2021/07/02 00:04:33;;;;;;;4.72;2.60;;;;;;;14.81;87.92;101098.03;4846736;29;20119;-85
2021/07/02 00:06:58;;;;;;;6.65;3.20;;;;;;;14.51;87.82;101047.22;4848338;29;20027;-85
2021/07/02 00:09:24;;;;;;;9.38;2.60;;;;;;;14.67;87.87;101072.94;4843389;29;20014;-84
2021/07/02 00:11:50;;;;;;;9.13;3.10;;;;;;;14.47;87.73;101045.09;4847560;29;20030;-84
2021/07/02 00:14:16;;;;;;;10.30;2.97;;;;;;;14.71;87.86;101084.16;4847439;29;20022;-83
2021/07/02 00:16:42;;;;;;;6.78;3.00;;;;;;;14.88;88.22;101106.94;4845245;29;20055;-83
2021/07/02 00:19:07;;;;;;;4.75;2.65;;;;;;;15.36;88.04;101184.94;4846520;29;20071;-84
2021/07/02 00:21:33;;;;;;;5.50;2.70;;;;;;;14.84;87.91;101097.59;4856363;29;20034;-84
2021/07/02 00:23:59;;;;;;;5.53;3.30;;;;;;;14.90;87.90;101102.16;4846355;29;20027;-84
2021/07/02 00:26:25;;;;;;;7.35;3.30;;;;;;;15.38;88.06;101179.31;4845201;29;20058;-82
2021/07/02 00:39:11;;;;;;;4.82;2.50;;;;;;;15.23;88.48;101166.94;4845061;29;20117;-84
2021/07/02 00:41:37;;;;;;;7.32;2.90;;;;;;;14.59;88.35;101073.19;4847488;29;20042;-85
2021/07/02 00:44:02;;;;;;;4.38;2.80;;;;;;;15.24;88.79;101178.59;4842323;29;20007;-84
2021/07/02 00:46:28;;;;;;;7.20;3.03;;;;;;;15.21;88.67;101177.16;4847115;29;20027;-84
2021/07/02 00:48:54;;;;;;;5.43;2.72;;;;;;;15.21;88.56;101170.91;4846991;29;20018;-84
2021/07/02 00:51:20;;;;;;;3.83;2.85;;;;;;;15.21;88.99;101166.31;4828345;29;20038;-83
2021/07/02 00:53:46;;;;;;;9.13;2.85;;;;;;;15.22;88.89;101172.56;4846871;29;20031;-83
2021/07/02 00:56:16;;;;;;;8.10;3.38;;;;;;;15.23;88.60;101175.06;4845420;29;20070;-85
2021/07/02 00:58:41;;;;;;;7.72;3.13;;;;;;;15.20;88.69;101169.25;4846834;29;20026;-84
2021/07/02 01:03:44;;;;;;;5.00;3.08;;;;;;;14.45;88.29;101039.94;4830352;29;20264;-84
2021/07/02 01:06:12;;;;;;;4.93;3.13;;;;;;;14.77;88.63;101096.84;4833203;29;20042;-83
2021/07/02 01:08:40;;;;;;;5.03;3.00;;;;;;;14.81;88.75;101081.78;4832049;29;20011;-85
2021/07/02 01:11:06;;;;;;;4.68;3.17;;;;;;;14.96;88.38;101097.72;4831654;29;20034;-83
2021/07/02 01:13:32;;;;;;;4.70;3.00;;;;;;;15.48;88.75;101171.50;4831993;29;20018;-85
2021/07/02 01:15:58;;;;;;;5.15;3.10;;;;;;;15.06;88.60;101100.75;4832163;29;20018;-84
2021/07/02 01:18:24;;;;;;;7.30;3.28;;;;;;;15.58;88.63;101171.00;4832559;29;20042;-83
2021/07/02 01:23:27;;;;;;;6.97;3.60;;;;;;;14.98;88.37;101063.09;4931957;24;20056;-84
2021/07/02 01:25:54;;;;;;;6.45;3.47;;;;;;;15.70;88.54;101164.66;4849346;29;20038;-82
2021/07/02 01:28:20;;;;;;;6.72;3.70;;;;;;;15.16;88.53;101081.28;4850166;29;20056;-84
2021/07/02 01:30:45;;;;;;;5.75;3.47;;;;;;;15.18;88.64;101079.19;4849980;29;20054;-83
2021/07/02 01:33:12;;;;;;;6.28;3.60;;;;;;;15.33;88.30;101103.22;4834168;29;20027;-85
2021/07/02 01:35:39;;;;;;;4.82;3.60;;;;;;;15.76;88.29;101162.06;4832274;29;20053;-84
2021/07/02 01:38:05;;;;;;;5.55;3.42;;;;;;;15.69;88.21;101156.72;4845085;29;20015;-84
2021/07/02 01:40:32;;;;;;;5.72;3.20;;;;;;;15.70;88.37;101158.41;4849386;29;20014;-84
2021/07/02 01:42:59;;;;;;;6.65;3.70;;;;;;;15.72;88.32;101157.09;4849975;29;20050;-83
2021/07/02 01:45:24;;;;;;;5.00;3.60;;;;;;;15.72;88.38;101154.38;4849475;29;20039;-83
2021/07/02 01:47:49;;;;;;;7.38;3.78;;;;;;;15.70;88.25;101164.66;4849092;29;20037;-83
2021/07/02 01:52:50;;;;;;;5.82;4.15;;;;;;;15.15;87.91;101085.88;5536348;24;20050;-82
2021/07/02 01:55:16;;;;;;;7.85;3.75;;;;;;;15.17;88.05;101089.19;4831635;29;20058;-84
2021/07/02 01:57:42;;;;;;;7.72;3.65;;;;;;;14.94;88.03;101057.28;4831034;29;20062;-85
2021/07/02 02:00:08;;;;;;;6.65;3.88;;;;;;;15.28;87.89;101112.03;4846031;29;20022;-83
2021/07/02 02:07:45;;;;;;;6.45;3.67;;;;;;;14.98;87.47;101077.47;4855740;24;20050;-84
2021/07/02 02:10:11;;;;;;;4.82;3.40;;;;;;;15.01;87.62;101085.16;4848794;29;20011;-85
2021/07/02 02:12:37;;;;;;;9.27;3.83;;;;;;;15.54;87.96;101167.91;4847570;29;20094;-83
2021/07/02 02:20:15;;;;;;;6.22;3.15;;;;;;;14.97;87.30;101097.50;5151873;24;20046;-84
2021/07/02 02:22:43;;;;;;;4.82;3.40;;;;;;;14.74;87.24;101059.34;4849263;29;20096;-85
2021/07/02 02:25:11;;;;;;;6.75;3.38;;;;;;;15.48;87.04;101174.22;4848665;29;20098;-84
2021/07/02 02:27:37;;;;;;;5.53;3.33;;;;;;;15.41;86.99;101171.56;4848537;29;20026;-83
2021/07/02 02:30:07;;;;;;;6.72;3.42;;;;;;;15.42;87.08;101180.53;4847935;29;20022;-84
2021/07/02 02:32:33;;;;;;;5.95;3.15;;;;;;;15.31;86.98;101165.00;4849219;29;20086;-84
2021/07/02 02:34:59;;;;;;;5.82;3.15;;;;;;;15.31;87.13;101182.09;4848599;29;20022;-84
2021/07/02 02:37:24;;;;;;;5.75;2.97;;;;;;;15.28;87.05;101182.53;4832892;29;20030;-84
2021/07/02 02:39:49;;;;;;;5.97;2.95;;;;;;;15.28;86.70;101177.09;4864052;29;20110;-85
2021/07/02 02:42:15;;;;;;;4.82;3.20;;;;;;;15.18;86.88;101172.16;4848877;29;20042;-84
2021/07/02 02:44:40;;;;;;;5.47;3.00;;;;;;;15.19;86.66;101179.25;4833967;29;20014;-85
2021/07/02 02:47:05;;;;;;;6.75;3.25;;;;;;;15.15;87.11;101182.63;4818311;29;20042;-84
2021/07/02 02:49:31;;;;;;;5.25;3.20;;;;;;;15.07;86.73;101174.78;4848785;29;20026;-84
2021/07/02 02:51:57;;;;;;;5.32;3.47;;;;;;;15.09;87.15;101175.38;4833361;29;20039;-84
2021/07/02 02:54:22;;;;;;;5.15;3.35;;;;;;;15.08;86.26;101173.72;4848443;29;20038;-84
2021/07/02 02:59:36;;;;;;;10.30;3.60;;;;;;;15.13;86.02;101195.56;4848525;29;20110;-84
2021/07/02 03:02:03;;;;;;;5.25;3.50;;;;;;;15.20;85.81;101190.94;4847702;29;20058;-84
2021/07/02 03:04:30;;;;;;;5.97;3.33;;;;;;;15.14;85.42;101167.41;4848525;29;20021;-83
2021/07/02 03:06:55;;;;;;;6.38;3.30;;;;;;;15.34;85.04;101189.78;4848584;29;20120;-84
2021/07/02 03:09:21;;;;;;;4.40;2.83;;;;;;;15.40;84.70;101174.50;4848824;29;20038;-84
2021/07/02 03:11:50;;;;;;;4.57;3.08;;;;;;;15.69;83.21;101179.28;4814947;29;20031;-85
2021/07/02 03:14:16;;;;;;;6.63;3.33;;;;;;;15.86;82.87;101194.94;4829979;29;20045;-84
2021/07/02 03:16:41;;;;;;;5.63;3.15;;;;;;;15.70;82.93;101193.66;4846965;29;20098;-84
2021/07/02 03:19:07;;;;;;;5.57;3.30;;;;;;;15.55;83.04;101190.44;4848318;29;20069;-84
2021/07/02 03:21:32;;;;;;;5.47;3.08;;;;;;;15.69;82.81;101192.00;4847698;29;20030;-84
2021/07/02 03:23:58;;;;;;;4.90;2.60;;;;;;;15.92;82.06;101194.88;4847937;29;20014;-84
2021/07/02 03:26:24;;;;;;;5.03;2.58;;;;;;;16.09;81.50;101197.00;4847642;29;20027;-84
2021/07/02 03:28:50;;;;;;;5.93;2.80;;;;;;;16.11;80.40;101182.16;4847987;29;20153;-85
2021/07/02 03:31:15;;;;;;;5.85;2.90;;;;;;;16.08;80.50;101188.03;4848183;29;20018;-84
2021/07/02 03:33:41;;;;;;;5.82;2.65;;;;;;;15.95;81.03;101205.28;4832437;29;20090;-84
2021/07/02 03:36:06;;;;;;;7.20;2.65;;;;;;;15.99;80.59;101208.38;4832473;29;20014;-85
2021/07/02 03:38:31;;;;;;;6.43;2.92;;;;;;;16.23;80.12;101212.09;4847827;29;20027;-84
2021/07/02 03:40:58;;;;;;;4.05;2.42;;;;;;;16.40;79.25;101202.28;4832479;29;20074;-85
2021/07/02 03:43:24;;;;;;;5.45;2.42;;;;;;;16.09;80.01;101203.28;4848383;29;20022;-84
2021/07/02 03:48:24;;;;;;;9.15;2.75;;;;;;;15.27;81.39;101145.63;4972686;24;20042;-86
2021/07/02 03:53:25;;;;;;;6.35;3.05;;;;;;;14.93;82.10;101104.41;5563807;24;20069;-84
2021/07/02 03:55:51;;;;;;;4.53;2.60;;;;;;;14.56;82.03;101060.91;4848554;29;20086;-85
2021/07/02 03:58:17;;;;;;;6.20;2.60;;;;;;;15.43;82.27;101203.88;4847594;29;20030;-84
2021/07/02 04:00:43;;;;;;;4.35;2.75;;;;;;;14.41;82.25;101052.25;4847039;29;20029;-84
2021/07/02 04:03:09;;;;;;;4.72;2.60;;;;;;;15.42;81.82;101207.63;4847555;29;20467;-84
2021/07/02 04:05:35;;;;;;;7.82;2.50;;;;;;;15.45;82.24;101210.75;4847858;29;20019;-84
2021/07/02 04:08:02;;;;;;;7.63;2.60;;;;;;;14.89;82.09;101140.28;4831909;29;20031;-84
2021/07/02 04:10:28;;;;;;;4.32;2.67;;;;;;;14.89;81.88;101140.28;4845993;29;20034;-82
2021/07/02 04:12:54;;;;;;;7.55;2.88;;;;;;;14.68;82.06;101112.50;4846943;29;20031;-84
2021/07/02 04:15:20;;;;;;;5.32;2.40;;;;;;;14.62;81.94;101096.31;4846538;29;20019;-84
2021/07/02 04:17:45;;;;;;;3.63;2.53;;;;;;;14.40;81.97;101066.81;4847384;29;20046;-84
2021/07/02 04:20:12;;;;;;;5.65;2.63;;;;;;;14.40;81.79;101058.69;4847136;29;20018;-84
2021/07/02 04:22:38;;;;;;;3.95;2.40;;;;;;;14.86;81.40;101127.19;4845870;29;20034;-84
2021/07/02 04:27:36;;;;;;;3.88;2.55;;;;;;;15.58;81.10;101211.69;5036799;24;20064;-81
2021/07/02 04:32:37;;;;;;;4.50;2.53;;;;;;;15.79;79.91;101194.19;4853776;24;20030;-84
2021/07/02 04:35:05;;;;;;;5.80;2.55;;;;;;;15.45;79.50;101118.53;4830371;29;20015;-85
2021/07/02 04:37:31;;;;;;;5.15;2.20;;;;;;;15.64;78.98;101100.41;4827449;29;20080;-84
2021/07/02 04:39:57;;;;;;;4.20;2.10;;;;;;;15.85;78.17;101122.75;4841303;29;20071;-84
2021/07/02 04:42:23;;;;;;;6.63;2.72;;;;;;;15.78;77.62;101094.84;4847141;29;20015;-84
2021/07/02 04:44:48;;;;;;;6.55;2.20;;;;;;;15.75;77.16;101066.28;4838001;29;20027;-84
2021/07/02 04:47:14;;;;;;;5.03;2.20;;;;;;;16.91;76.15;101202.88;4834962;29;20082;-85
2021/07/02 04:49:40;;;;;;;4.30;2.22;;;;;;;16.26;75.00;101056.03;4837650;29;20033;-85
2021/07/02 04:52:07;;;;;;;4.18;2.20;;;;;;;17.00;74.87;101173.47;4835800;29;20108;-85
2021/07/02 04:54:33;;;;;;;5.13;2.30;;;;;;;16.32;75.03;101055.09;5427369;24;20017;-83
2021/07/02 04:57:00;;;;;;;5.05;2.20;;;;;;;16.49;75.28;101096.00;4846554;29;20082;-84
2021/07/02 04:59:32;;;;;;;7.93;2.20;;;;;;;16.76;74.40;101113.63;4847532;29;20037;-84
2021/07/02 05:01:58;;;;;;;4.80;2.10;;;;;;;17.76;73.69;101218.91;4842927;29;20026;-83
2021/07/02 05:04:24;;;;;;;2.40;2.10;;;;;;;17.02;73.36;101098.78;4843027;29;20025;-83
2021/07/02 05:06:50;;;;;;;2.92;2.35;;;;;;;16.84;73.51;101102.41;4844893;29;20034;-84
2021/07/02 05:09:16;;;;;;;6.25;2.08;;;;;;;17.20;73.01;101138.63;4828818;29;20043;-83
2021/07/02 05:11:42;;;;;;;6.10;2.30;;;;;;;17.50;72.45;101145.88;4827360;29;20023;-84
2021/07/02 05:14:08;;;;;;;5.13;2.30;;;;;;;16.95;72.47;101054.56;4842746;29;20010;-84
2021/07/02 05:16:33;;;;;;;3.08;2.10;;;;;;;16.95;72.24;101056.44;4846137;29;20026;-83
2021/07/02 05:19:00;;;;;;;3.88;2.10;;;;;;;17.31;72.21;101139.72;4846601;29;20026;-82
2021/07/02 05:21:26;;;;;;;5.43;2.20;;;;;;;17.72;71.69;101176.88;4846779;29;20033;-84
2021/07/02 05:23:52;;;;;;;3.33;2.00;;;;;;;18.08;70.22;101153.19;4844194;29;20019;-83
2021/07/02 05:26:18;;;;;;;3.65;1.95;;;;;;;18.07;69.63;101135.16;4846048;29;20042;-82
2021/07/02 05:28:44;;;;;;;4.18;1.98;;;;;;;18.28;69.07;101087.41;5188159;24;20047;-84
2021/07/02 05:31:09;;;;;;;3.58;2.10;;;;;;;18.28;67.73;101077.31;4839430;24;20854;-82
2021/07/02 05:33:35;;;;;;;3.20;2.25;;;;;;;18.58;68.53;101149.00;5519014;24;20041;-81
2021/07/02 05:46:24;;;;;;;2.67;2.00;;;;;;;19.59;68.03;101226.31;5012581;24;1488405;-85
2021/07/02 05:48:49;;;;;;;5.72;2.10;;;;;;;18.96;67.62;101164.69;4825540;29;20367;-82
2021/07/02 05:59:01;;;;;;;4.70;2.10;;;;;;;17.68;69.82;101061.38;5809667;24;20021;-81
2021/07/02 06:01:29;;;;;;;3.92;2.30;;;;;;;18.03;69.86;101131.28;5670039;24;20113;-83
2021/07/02 06:09:07;;;;;;;5.07;2.10;;;;;;;17.71;70.10;101119.94;5026411;24;20058;-84
2021/07/02 06:11:33;;;;;;;2.50;2.10;;;;;;;17.32;70.38;101073.38;4857795;29;20094;-84
2021/07/02 06:13:59;;;;;;;2.63;1.83;;;;;;;17.42;69.95;101100.81;4844863;29;20023;-82
2021/07/02 06:16:24;;;;;;;2.90;2.30;;;;;;;17.78;70.12;101137.00;4834459;29;20030;-82
2021/07/02 06:18:50;;;;;;;3.15;2.00;;;;;;;17.42;70.12;101065.44;4842598;29;20036;-83
2021/07/02 06:21:17;;;;;;;4.80;2.20;;;;;;;17.71;70.18;101098.97;4851544;29;20007;-84
2021/07/02 06:23:43;;;;;;;3.70;2.30;;;;;;;17.99;70.35;101146.44;4848599;29;20019;-85
2021/07/02 06:26:09;;;;;;;4.13;2.20;;;;;;;17.55;70.49;101083.41;4857698;29;20036;-83
2021/07/02 06:28:37;;;;;;;2.53;2.00;;;;;;;17.46;71.09;101065.81;4840004;29;20043;-83
2021/07/02 06:31:04;;;;;;;6.55;2.00;;;;;;;18.31;71.27;101239.47;4842205;29;20038;-83
2021/07/02 06:33:30;;;;;;;2.72;1.85;;;;;;;17.41;71.33;101082.81;4842877;29;20035;-84
2021/07/02 06:43:44;;;;;;;2.83;2.20;;;;;;;18.31;68.73;101168.63;4905252;24;20059;-82
2021/07/02 06:46:10;;;;;;;2.63;1.98;;;;;;;18.65;68.40;101228.72;4847678;29;20051;-82
2021/07/02 06:48:35;;;;;;;3.17;2.10;;;;;;;18.82;68.39;101226.88;4856331;29;20018;-82
2021/07/02 06:51:00;;;;;;;2.72;2.00;;;;;;;18.78;68.72;101196.56;4807346;29;20031;-82
2021/07/02 06:53:27;;;;;;;3.15;2.13;;;;;;;18.86;68.81;101225.31;4845499;29;20065;-82
2021/07/02 06:55:53;;;;;;;4.20;2.03;;;;;;;18.79;68.86;101213.75;4831050;29;20041;-82
2021/07/02 06:58:22;;;;;;;4.10;1.98;;;;;;;18.64;68.76;101214.25;4843958;29;20030;-81
2021/07/02 07:00:48;;;;;;;3.13;1.90;;;;;;;18.84;68.66;101232.09;4844716;29;20026;-83
2021/07/02 07:03:14;;;;;;;3.65;1.70;;;;;;;18.86;68.27;101219.03;4828589;29;20082;-82
2021/07/02 07:05:40;;;;;;;2.33;1.83;;;;;;;18.81;68.16;101199.84;4843150;29;20014;-82
2021/07/02 07:08:08;;;;;;;2.67;1.90;;;;;;;19.15;67.77;101217.13;4847549;29;20015;-84
2021/07/02 07:10:36;;;;;;;4.32;2.10;;;;;;;19.25;65.73;101218.13;4845801;29;20025;-83
2021/07/02 07:13:04;;;;;;;3.15;1.90;;;;;;;19.17;65.39;101218.53;4830793;29;20039;-84
2021/07/02 07:15:30;;;;;;;2.45;1.92;;;;;;;19.28;65.71;101215.97;4842983;29;20060;-84
2021/07/02 07:20:31;;;;;;;2.90;2.30;;;;;;;18.13;66.20;101057.13;5698375;24;20089;-83
2021/07/02 07:22:57;;;;;;;3.53;2.13;;;;;;;18.63;66.11;101103.56;4843568;29;20015;-84
2021/07/02 07:25:24;;;;;;;5.50;2.28;;;;;;;18.56;66.03;101053.84;4843926;29;20033;-84
2021/07/02 07:27:50;;;;;;;4.28;2.28;;;;;;;18.77;66.08;101120.44;4839711;29;20067;-83
2021/07/02 07:32:57;;;;;;;3.33;2.13;;;;;;;19.52;66.23;101213.91;4966804;24;20065;-77
2021/07/02 07:37:55;;;;;;;4.03;2.50;;;;;;;19.33;65.58;101183.31;4825290;29;20034;-81
2021/07/02 07:40:22;;;;;;;4.38;2.30;;;;;;;18.70;65.99;101126.03;4842335;29;20095;-82
2021/07/02 07:42:49;;;;;;;2.92;2.35;;;;;;;18.55;65.58;101090.34;4846681;29;20544;-82
2021/07/02 07:45:15;;;;;;;3.72;2.10;;;;;;;19.17;65.76;101165.84;4853176;29;20030;-81
2021/07/02 07:47:40;;;;;;;2.38;2.03;;;;;;;19.20;65.56;101155.31;4838486;29;20051;-80
2021/07/02 07:50:09;;;;;;;3.90;2.30;;;;;;;18.92;65.58;101109.81;4832607;29;20033;-83
2021/07/02 07:55:05;;;;;;;3.00;2.13;;;;;;;18.73;64.99;101035.63;4836150;29;20037;-82
2021/07/02 07:57:30;;;;;;;2.53;2.00;;;;;;;19.99;65.01;101213.53;4836668;29;20022;-82
2021/07/02 07:59:58;;;;;;;4.00;2.10;;;;;;;20.14;64.82;101221.97;4845736;29;20129;-82
2021/07/02 08:02:24;;;;;;;6.00;2.40;;;;;;;20.26;64.39;101232.75;4835193;29;20045;-81
2021/07/02 08:04:51;;;;;;;3.35;2.05;;;;;;;19.28;64.35;101046.81;4840108;29;20027;-83
2021/07/02 08:07:17;;;;;;;2.88;2.33;;;;;;;20.28;63.77;101168.56;4842402;29;20053;-82
2021/07/02 08:09:44;;;;;;;4.88;2.50;;;;;;;19.99;63.35;101090.63;4854477;29;20034;-82
2021/07/02 08:12:09;;;;;;;4.38;2.22;;;;;;;20.12;63.24;101080.13;4847136;29;20037;-82
2021/07/02 08:14:35;;;;;;;5.78;2.10;;;;;;;20.69;63.13;101163.59;4839442;29;20007;-83
2021/07/02 08:17:00;;;;;;;5.10;2.15;;;;;;;20.49;63.05;101098.56;4836308;29;20031;-82
2021/07/02 08:19:26;;;;;;;2.72;2.10;;;;;;;19.98;63.21;101040.66;4836995;29;20059;-82
2021/07/02 08:21:51;;;;;;;4.20;2.90;;;;;;;19.89;62.64;101036.72;4841949;29;20034;-83
2021/07/02 08:24:17;;;;;;;3.10;2.00;;;;;;;20.25;62.53;101113.63;4838214;29;20063;-82
2021/07/02 08:26:43;;;;;;;4.75;2.20;;;;;;;19.81;63.12;101045.38;4843341;29;20023;-83
2021/07/02 08:29:25;;;;;;;3.78;2.17;;;;;;;21.19;63.01;101219.06;4835866;29;20027;-82
2021/07/02 08:31:51;;;;;;;2.53;2.13;;;;;;;20.69;62.78;101143.63;4839922;29;20029;-82
2021/07/02 08:34:17;;;;;;;3.10;2.15;;;;;;;20.58;62.51;101129.84;4836187;29;20039;-83
2021/07/02 08:36:43;;;;;;;4.00;2.05;;;;;;;20.48;62.21;101102.38;4840200;29;20056;-82
2021/07/02 08:39:09;;;;;;;4.32;2.08;;;;;;;20.78;62.68;101142.09;4834556;29;20026;-83
2021/07/02 08:41:39;;;;;;;3.80;2.10;;;;;;;20.12;62.15;101038.34;4837469;29;20051;-82
2021/07/02 08:44:07;;;;;;;4.88;2.58;;;;;;;20.52;62.09;101097.25;4840514;29;20022;-82
2021/07/02 08:46:36;;;;;;;6.65;2.30;;;;;;;20.71;62.14;101095.81;4836222;29;20026;-82
2021/07/02 08:49:03;;;;;;;3.38;2.22;;;;;;;20.83;62.25;101112.06;4840625;29;20018;-82
2021/07/02 08:51:29;;;;;;;4.45;2.45;;;;;;;20.27;62.11;101015.81;4842202;29;20023;-82
2021/07/02 08:53:55;;;;;;;2.45;2.00;;;;;;;21.02;62.25;101161.72;4839639;29;20050;-82
2021/07/02 08:56:22;;;;;;;5.15;2.10;;;;;;;20.94;61.93;101146.63;4828839;29;20030;-82
2021/07/02 08:58:48;;;;;;;2.20;1.98;;;;;;;20.26;62.09;101022.34;4841693;29;20023;-81
2021/07/02 09:01:43;;;;;;;6.10;2.15;;;;;;;21.70;62.68;101225.00;4839361;29;20041;-81
2021/07/02 09:04:20;;;;;;;4.05;2.47;;;;;;;21.40;61.26;101138.81;4839900;29;20041;-83
2021/07/02 09:07:09;;;;;;;4.28;2.60;;;;;;;21.05;61.38;101088.16;4839396;29;20035;-84
2021/07/02 09:09:59;;;;;;;2.80;2.33;;;;;;;21.90;61.79;101216.06;4835831;29;20039;-82
2021/07/02 09:15:07;;;;;;;4.43;2.15;;;;;;;22.45;60.62;101215.56;5032155;24;20072;-81
2021/07/02 09:17:38;;;;;;;3.73;2.07;;;;;;;21.75;60.35;101108.03;4834501;29;20118;-82
2021/07/02 09:20:18;;;;;;;6.10;2.40;;;;;;;21.16;59.87;101058.13;4840715;29;20041;-81
2021/07/02 09:22:49;;;;;;;6.43;2.40;;;;;;;21.89;60.28;101154.97;4834005;29;20021;-81
2021/07/02 09:25:46;;;;;;;4.38;2.40;;;;;;;21.14;59.83;101013.78;4839547;29;20034;-82
2021/07/02 09:28:17;;;;;;;4.30;2.35;;;;;;;21.32;60.37;101043.44;4836200;29;20027;-81
2021/07/02 09:30:52;;;;;;;2.65;2.08;;;;;;;21.35;59.82;101024.59;4839013;29;20021;-81
2021/07/02 09:33:24;;;;;;;3.92;2.60;;;;;;;21.62;59.88;101070.19;4837776;29;20010;-81
2021/07/02 09:36:09;;;;;;;4.57;2.38;;;;;;;21.83;60.08;101098.50;4849952;29;20018;-82
2021/07/02 09:43:39;;;;;;;3.17;2.28;;;;;;;21.53;60.24;101066.31;4827093;29;20037;-80
2021/07/02 09:46:07;;;;;;;5.78;2.30;;;;;;;22.00;60.02;101092.81;4840561;29;20031;-80
2021/07/02 09:48:40;;;;;;;4.88;2.75;;;;;;;22.14;60.44;101158.91;4824988;29;20026;-82
2021/07/02 09:51:06;;;;;;;6.93;2.53;;;;;;;22.21;60.76;101159.53;4828153;29;20031;-81
2021/07/02 09:53:37;;;;;;;2.63;2.25;;;;;;;21.70;60.25;101068.88;4837556;29;20065;-81
2021/07/02 10:10:09;;;;;;;5.30;2.72;;;;;;;21.69;60.78;101048.03;4869126;24;20064;-82
2021/07/02 10:12:35;;;;;;;3.97;2.78;;;;;;;22.50;59.64;101094.91;4944080;24;20046;-82
2021/07/02 10:15:01;;;;;;;3.78;2.45;;;;;;;23.24;58.95;101111.97;4845966;29;20073;-83
2021/07/02 10:17:27;;;;;;;4.22;2.40;;;;;;;23.17;58.00;101056.50;4845653;29;20026;-84
2021/07/02 10:22:28;;;;;;;4.95;2.63;;;;;;;22.61;59.05;101070.22;5426674;24;20040;-82
2021/07/02 10:37:58;;;;;;;3.50;2.58;;;;;;;21.39;61.08;101101.56;5488767;24;20047;-82
2021/07/02 10:40:41;;;;;;;4.17;2.60;;;;;;;22.52;60.77;101238.06;4844033;29;20034;-84
2021/07/02 10:43:21;;;;;;;4.03;2.50;;;;;;;21.95;61.36;101232.53;4845539;29;20431;-83
2021/07/02 10:46:15;;;;;;;3.10;2.40;;;;;;;21.54;62.47;101238.56;4844157;29;20026;-82
2021/07/02 10:48:51;;;;;;;4.93;2.30;;;;;;;21.62;62.68;101237.25;4843472;29;20110;-82
2021/07/02 10:56:33;;;;;;;4.65;2.42;;;;;;;20.72;63.93;101061.06;4871777;24;20064;-82
2021/07/02 10:58:59;;;;;;;3.30;2.70;;;;;;;21.19;63.37;101136.94;4839218;29;20026;-83
2021/07/02 11:01:33;;;;;;;5.82;2.88;;;;;;;21.08;63.02;101092.28;4844919;29;20067;-82
2021/07/02 11:04:31;;;;;;;5.03;2.78;;;;;;;22.08;63.09;101223.03;4845910;29;20007;-82
2021/07/02 11:06:56;;;;;;;3.38;2.60;;;;;;;22.00;63.59;101232.56;4840633;29;20037;-83
2021/07/02 11:27:40;;;;;;;4.90;2.80;;;;;;;21.49;65.12;101120.78;5472001;24;20068;-82
2021/07/02 12:01:14;;;;;;;6.32;3.78;;;;;;;23.01;64.59;101162.75;5642268;24;20066;-83
2021/07/02 12:08:51;;;;;;;6.85;4.20;;;;;;;23.65;62.85;101217.13;5053171;24;20084;-82
2021/07/02 12:11:26;;;;;;;4.40;3.95;;;;;;;22.72;63.36;101036.25;4812745;29;20020;-83
2021/07/02 12:13:51;;;;;;;4.68;3.80;;;;;;;24.03;62.65;101216.78;4820664;29;20038;-83
2021/07/02 12:16:17;;;;;;;7.10;3.40;;;;;;;23.94;62.32;101207.47;4820952;29;20099;-83
2021/07/02 12:18:43;;;;;;;4.05;3.60;;;;;;;24.00;62.71;101204.41;4807672;29;20015;-83
2021/07/02 12:21:11;;;;;;;4.70;3.92;;;;;;;24.06;61.72;101202.47;4816426;29;20047;-83
2021/07/02 12:23:42;;;;;;;7.57;3.67;;;;;;;24.15;61.86;101203.56;4817867;29;20019;-83
2021/07/02 12:26:12;;;;;;;5.57;3.75;;;;;;;24.33;61.05;101191.09;4825225;29;20027;-82
2021/07/02 12:28:57;;;;;;;8.27;3.85;;;;;;;24.41;60.71;101196.06;4817724;29;20031;-82
2021/07/02 12:31:53;;;;;;;8.68;3.90;;;;;;;24.58;60.70;101206.69;4819304;29;20019;-83
2021/07/02 12:34:21;;;;;;;6.75;3.97;;;;;;;24.71;59.78;101200.56;4826853;29;20111;-82
2021/07/02 12:37:02;;;;;;;6.22;3.78;;;;;;;24.69;60.50;101207.47;4819442;29;20022;-83
2021/07/02 12:39:34;;;;;;;4.57;3.72;;;;;;;24.60;59.84;101193.47;4820919;29;20100;-80
2021/07/02 12:42:37;;;;;;;8.85;4.13;;;;;;;24.53;59.96;101201.22;4819629;29;20019;-83
2021/07/02 12:45:06;;;;;;;4.65;3.50;;;;;;;23.30;60.48;101042.22;4896749;24;20079;-82
2021/07/02 12:47:36;;;;;;;5.30;3.95;;;;;;;23.90;60.70;101147.53;5191446;24;20127;-80
2021/07/02 12:50:06;;;;;;;3.90;3.22;;;;;;;24.02;61.49;101204.16;4831013;29;20007;-83
2021/07/02 13:00:23;;;;;;;5.28;3.47;;;;;;;24.18;61.22;101205.75;4828938;29;20106;-82
2021/07/02 13:02:55;;;;;;;7.03;3.58;;;;;;;23.41;61.04;101086.94;4822556;29;20040;-82
2021/07/02 13:05:24;;;;;;;5.85;3.90;;;;;;;22.79;61.02;100970.13;4831486;29;20015;-82
2021/07/02 13:10:24;;;;;;;4.75;3.60;;;;;;;24.16;61.38;101210.69;5391640;24;20045;-82
2021/07/02 13:13:10;;;;;;;5.88;3.85;;;;;;;24.45;60.83;101199.88;4842073;29;20061;-82
2021/07/02 13:33:41;;;;;;;6.38;4.15;;;;;;;23.39;63.89;101208.06;5756260;23;20064;-78
2021/07/02 13:36:15;;;;;;;11.45;4.22;;;;;;;22.20;64.72;101056.47;5400161;23;20880;-79
2021/07/02 13:41:23;;;;;;;5.38;3.75;;;;;;;21.55;65.31;101043.03;5412150;24;19929;-81
2021/07/02 13:44:07;;;;;;;8.68;4.03;;;;;;;22.89;65.21;101226.09;5362347;24;20039;31
2021/07/02 13:46:36;;;;;;;11.23;3.58;;;;;;;22.74;65.50;101215.91;4805747;29;20072;-82
2021/07/02 13:49:07;;;;;;;8.50;3.80;;;;;;;22.17;65.73;101140.06;4849051;24;20094;-83
2021/07/02 13:51:35;;;;;;;7.32;3.92;;;;;;;21.80;65.87;101080.69;4848736;29;20078;-83
2021/07/02 13:54:06;;;;;;;4.93;3.78;;;;;;;22.56;65.42;101215.59;4840716;29;20021;-82
2021/07/02 13:56:32;;;;;;;6.65;3.67;;;;;;;22.74;65.37;101207.69;4846289;29;20030;-82
2021/07/02 14:01:33;;;;;;;5.32;3.92;;;;;;;22.94;64.75;101226.13;5621146;24;20046;-82
2021/07/02 14:03:59;;;;;;;5.72;3.80;;;;;;;22.02;65.00;101127.09;4846815;29;20106;-82
2021/07/02 14:06:25;;;;;;;7.75;3.78;;;;;;;22.30;65.26;101174.38;4846328;29;20042;-83
2021/07/02 14:08:51;;;;;;;6.55;3.70;;;;;;;21.83;65.51;101082.06;4835955;29;20027;-81
2021/07/02 14:11:17;;;;;;;8.13;3.97;;;;;;;22.70;65.05;101190.13;4836157;29;20070;-82
2021/07/02 14:13:42;;;;;;;5.10;3.65;;;;;;;22.90;64.72;101233.25;4845006;29;20029;-82
2021/07/02 14:18:43;;;;;;;5.72;4.03;;;;;;;23.21;65.03;101244.28;5223610;23;20066;-81
2021/07/02 14:21:09;;;;;;;5.72;3.50;;;;;;;22.28;64.75;101077.84;4855229;29;20053;-81
2021/07/02 14:23:35;;;;;;;4.03;3.60;;;;;;;22.21;64.32;101069.06;4853563;29;20083;-82
2021/07/02 14:33:49;;;;;;;4.53;3.65;;;;;;;22.01;65.04;101073.38;5204044;24;20049;-81
2021/07/02 14:36:15;;;;;;;4.13;3.40;;;;;;;21.95;64.65;101051.69;5104259;24;20083;-82
2021/07/02 14:38:44;;;;;;;4.93;3.50;;;;;;;22.60;64.92;101150.88;4847793;29;20026;-81
2021/07/02 14:41:10;;;;;;;5.75;3.67;;;;;;;22.45;64.30;101132.44;4848233;29;20041;-82
2021/07/02 14:43:36;;;;;;;5.63;3.67;;;;;;;23.11;64.43;101230.56;4847233;29;20023;-81
2021/07/02 14:46:02;;;;;;;4.68;3.70;;;;;;;22.41;64.76;101112.97;4848618;29;20066;-82
2021/07/02 14:51:03;;;;;;;6.07;3.60;;;;;;;23.16;64.96;101216.84;4940687;24;20511;-81
2021/07/02 14:56:04;;;;;;;4.05;3.10;;;;;;;22.44;65.60;101131.63;5072104;24;20255;-81
2021/07/02 14:58:30;;;;;;;3.45;3.15;;;;;;;22.56;65.60;101150.59;4842750;29;20057;-79
2021/07/02 15:00:56;;;;;;;6.40;3.60;;;;;;;22.87;65.78;101200.84;5325143;24;20990;-80
2021/07/02 15:03:22;;;;;;;5.63;3.40;;;;;;;22.36;65.32;101120.38;4812577;29;20103;-82
2021/07/02 15:05:48;;;;;;;4.43;3.42;;;;;;;23.04;65.90;101230.81;4880890;24;20057;-81
2021/07/02 15:08:14;;;;;;;3.47;3.17;;;;;;;21.89;65.49;101039.91;4847660;29;20023;-82
2021/07/02 15:10:43;;;;;;;4.20;3.17;;;;;;;22.67;65.56;101149.50;5197341;23;20057;-79
2021/07/02 15:13:08;;;;;;;4.20;3.20;;;;;;;21.94;65.87;101053.63;4830876;29;20022;-83
2021/07/02 15:15:35;;;;;;;4.07;3.22;;;;;;;22.58;65.73;101147.56;4935975;23;20054;-81
2021/07/02 15:18:06;;;;;;;4.93;3.47;;;;;;;22.46;65.67;101118.50;4843343;29;20018;-80